createdAt,value
2022-09-09T00:00:34.424Z,88.47
2022-09-09T00:01:44.248Z,88.07
2022-09-09T00:02:56.353Z,87.88
2022-09-09T00:04:21.845Z,87.46
2022-09-09T00:05:41.300Z,87.59
2022-09-09T00:07:22.208Z,88.04
2022-09-09T00:08:28.003Z,87.33
2022-09-09T00:09:30.801Z,87.71
2022-09-09T00:10:42.800Z,87.33
2022-09-09T00:11:53.042Z,87.61
2022-09-09T00:12:56.973Z,87.46
2022-09-09T00:13:58.588Z,87.49
2022-09-09T00:15:03.150Z,87.61
2022-09-09T00:16:20.234Z,87.95
2022-09-09T00:17:48.010Z,87.13
2022-09-09T00:19:08.986Z,87.46
2022-09-09T00:20:15.559Z,88.05
2022-09-09T00:21:18.302Z,87.56
2022-09-09T00:22:21.787Z,87.86
2022-09-09T00:23:26.894Z,87.53
2022-09-09T00:24:32.704Z,87.41
2022-09-09T00:25:38.809Z,87.38
2022-09-09T00:26:48.221Z,87.47
2022-09-09T00:27:50.141Z,87.41
2022-09-09T00:28:55.174Z,87.27
2022-09-09T00:30:26.603Z,87.48
2022-09-09T00:31:29.823Z,87.60
2022-09-09T00:32:31.646Z,87.69
2022-09-09T00:33:33.250Z,87.61
2022-09-09T00:34:34.809Z,88.13
2022-09-09T00:35:41.324Z,88.16
2022-09-09T00:36:42.986Z,88.50
2022-09-09T00:37:45.834Z,88.97
2022-09-09T00:39:01.509Z,87.88
2022-09-09T00:40:04.980Z,88.09
2022-09-09T00:41:38.925Z,87.71
2022-09-09T00:42:43.677Z,87.67
2022-09-09T00:43:45.237Z,87.55
2022-09-09T00:44:56.569Z,87.50
2022-09-09T00:46:21.072Z,87.50
2022-09-09T00:47:27.000Z,87.46
2022-09-09T00:48:38.407Z,87.43
2022-09-09T00:50:01.255Z,87.52
2022-09-09T00:51:11.280Z,87.96
2022-09-09T00:52:32.857Z,88.08
2022-09-09T00:53:58.064Z,87.68
2022-09-09T00:55:22.583Z,87.71
2022-09-09T00:56:27.919Z,87.69
2022-09-09T00:57:30.961Z,87.89
2022-09-09T00:58:33.557Z,87.72
2022-09-09T00:59:43.878Z,87.75
2022-09-09T01:00:46.394Z,87.93
2022-09-09T01:01:47.979Z,88.38
2022-09-09T01:03:08.343Z,88.04
2022-09-09T01:04:13.475Z,87.89
2022-09-09T01:05:36.204Z,88.38
2022-09-09T01:06:39.495Z,88.33
2022-09-09T01:07:42.282Z,88.64
2022-09-09T01:08:53.875Z,88.58
2022-09-09T01:09:59.199Z,88.60
2022-09-09T01:11:00.810Z,88.80
2022-09-09T01:12:03.974Z,88.39
2022-09-09T01:13:06.781Z,88.88
2022-09-09T01:14:13.150Z,88.66
2022-09-09T01:15:34.964Z,88.60
2022-09-09T01:16:36.589Z,88.43
2022-09-09T01:17:50.738Z,88.26
2022-09-09T01:18:54.081Z,88.24
2022-09-09T01:20:18.123Z,88.23
2022-09-09T01:21:56.685Z,88.09
2022-09-09T01:23:10.105Z,88.15
2022-09-09T01:24:14.630Z,88.23
2022-09-09T01:25:53.650Z,88.48
2022-09-09T01:26:57.567Z,88.34
2022-09-09T01:28:01.786Z,88.33
2022-09-09T01:29:03.539Z,88.24
2022-09-09T01:30:12.519Z,88.60
2022-09-09T01:31:18.087Z,88.24
2022-09-09T01:32:39.231Z,88.31
2022-09-09T01:33:40.848Z,88.47
2022-09-09T01:34:42.525Z,88.04
2022-09-09T01:35:56.921Z,87.88
2022-09-09T01:37:03.474Z,87.93
2022-09-09T01:38:05.225Z,88.28
2022-09-09T01:39:06.843Z,88.31
2022-09-09T01:40:08.875Z,88.33
2022-09-09T01:41:10.509Z,88.72
2022-09-09T01:42:14.779Z,88.45
2022-09-09T01:43:16.342Z,88.19
2022-09-09T01:44:19.301Z,87.90
2022-09-09T01:45:20.887Z,88.21
2022-09-09T01:46:23.198Z,88.39
2022-09-09T01:47:24.783Z,88.13
2022-09-09T01:48:26.472Z,88.03
2022-09-09T01:49:28.079Z,88.18
2022-09-09T01:50:29.753Z,88.13
2022-09-09T01:51:31.427Z,88.48
2022-09-09T01:52:32.987Z,88.74
2022-09-09T01:53:34.554Z,88.08
2022-09-09T01:54:36.223Z,88.50
2022-09-09T01:55:41.800Z,88.67
2022-09-09T01:57:21.580Z,87.98
2022-09-09T01:58:40.803Z,88.24
2022-09-09T02:00:02.933Z,88.27
2022-09-09T02:01:39.533Z,88.16
2022-09-09T02:03:06.040Z,88.56
2022-09-09T02:04:13.016Z,88.55
2022-09-09T02:05:29.678Z,88.72
2022-09-09T02:06:35.181Z,88.59
2022-09-09T02:07:36.697Z,88.57
2022-09-09T02:08:44.288Z,88.47
2022-09-09T02:09:45.940Z,88.52
2022-09-09T02:11:01.737Z,88.44
2022-09-09T02:12:08.292Z,88.63
2022-09-09T02:13:11.935Z,88.88
2022-09-09T02:14:15.223Z,89.10
2022-09-09T02:15:32.084Z,89.33
2022-09-09T02:16:50.358Z,88.53
2022-09-09T02:17:51.997Z,88.74
2022-09-09T02:19:24.929Z,88.84
2022-09-09T02:20:30.556Z,88.81
2022-09-09T02:21:36.242Z,88.67
2022-09-09T02:22:40.538Z,88.81
2022-09-09T02:23:43.000Z,88.82
2022-09-09T02:24:45.455Z,88.63
2022-09-09T02:25:47.373Z,88.69
2022-09-09T02:26:50.444Z,88.85
2022-09-09T02:27:52.595Z,88.73
2022-09-09T02:28:55.180Z,88.88
2022-09-09T02:29:57.810Z,89.00
2022-09-09T02:30:59.700Z,89.15
2022-09-09T02:32:04.270Z,88.96
2022-09-09T02:33:07.470Z,89.01
2022-09-09T02:34:11.836Z,89.24
2022-09-09T02:35:15.553Z,89.30
2022-09-09T02:36:17.319Z,89.35
2022-09-09T02:37:20.189Z,89.09
2022-09-09T02:38:21.978Z,89.27
2022-09-09T02:39:23.522Z,89.27
2022-09-09T02:40:25.079Z,89.61
2022-09-09T02:41:35.356Z,89.66
2022-09-09T02:42:44.253Z,89.50
2022-09-09T02:43:45.904Z,89.42
2022-09-09T02:44:47.560Z,89.26
2022-09-09T02:46:26.670Z,89.05
2022-09-09T02:47:33.790Z,89.23
2022-09-09T02:48:48.571Z,89.14
2022-09-09T02:49:58.962Z,89.82
2022-09-09T02:51:11.344Z,89.53
2022-09-09T02:52:19.652Z,89.24
2022-09-09T02:53:56.878Z,89.42
2022-09-09T02:55:00.523Z,89.10
2022-09-09T02:56:06.505Z,89.33
2022-09-09T02:57:18.535Z,89.67
2022-09-09T02:58:20.164Z,89.81
2022-09-09T02:59:22.329Z,89.61
2022-09-09T03:00:28.266Z,89.37
2022-09-09T03:01:29.914Z,89.16
2022-09-09T03:02:31.609Z,89.18
2022-09-09T03:03:33.194Z,89.12
2022-09-09T03:04:34.779Z,89.41
2022-09-09T03:05:36.879Z,89.44
2022-09-09T03:06:38.878Z,89.04
2022-09-09T03:07:40.985Z,88.88
2022-09-09T03:08:49.237Z,89.05
2022-09-09T03:09:51.353Z,89.04
2022-09-09T03:10:55.389Z,88.94
2022-09-09T03:11:57.283Z,88.93
2022-09-09T03:12:58.960Z,89.00
2022-09-09T03:14:00.527Z,88.66
2022-09-09T03:15:02.108Z,88.85
2022-09-09T03:16:04.932Z,88.99
2022-09-09T03:17:06.871Z,89.07
2022-09-09T03:18:08.587Z,88.81
2022-09-09T03:19:10.403Z,88.93
2022-09-09T03:20:11.978Z,89.33
2022-09-09T03:21:13.625Z,89.50
2022-09-09T03:22:15.390Z,89.93
2022-09-09T03:23:17.130Z,89.72
2022-09-09T03:24:18.704Z,89.68
2022-09-09T03:25:20.270Z,89.72
2022-09-09T03:26:21.843Z,89.76
2022-09-09T03:27:23.526Z,89.93
2022-09-09T03:28:31.098Z,89.64
2022-09-09T03:29:32.651Z,89.68
2022-09-09T03:30:34.584Z,89.51
2022-09-09T03:31:37.339Z,89.71
2022-09-09T03:32:39.019Z,89.77
2022-09-09T03:33:42.118Z,89.49
2022-09-09T03:34:43.731Z,89.50
2022-09-09T03:35:51.699Z,89.26
2022-09-09T03:36:53.260Z,89.44
2022-09-09T03:37:56.034Z,89.11
2022-09-09T03:38:57.703Z,89.10
2022-09-09T03:40:00.956Z,89.20
2022-09-09T03:41:02.989Z,89.48
2022-09-09T03:42:05.035Z,89.23
2022-09-09T03:43:06.591Z,89.38
2022-09-09T03:44:08.227Z,89.30
2022-09-09T03:45:10.544Z,89.01
2022-09-09T03:46:12.201Z,89.24
2022-09-09T03:47:14.319Z,89.14
2022-09-09T03:48:16.739Z,88.88
2022-09-09T03:49:18.380Z,88.82
2022-09-09T03:50:20.038Z,88.98
2022-09-09T03:51:22.872Z,89.04
2022-09-09T03:52:26.123Z,89.07
2022-09-09T03:53:27.962Z,88.91
2022-09-09T03:54:29.538Z,89.07
2022-09-09T03:55:31.141Z,88.96
2022-09-09T03:56:32.944Z,88.80
2022-09-09T03:57:36.027Z,88.94
2022-09-09T03:58:38.113Z,89.06
2022-09-09T03:59:39.688Z,88.57
2022-09-09T04:00:46.116Z,88.90
2022-09-09T04:01:48.279Z,89.22
2022-09-09T04:02:50.729Z,88.84
2022-09-09T04:03:53.730Z,89.44
2022-09-09T04:04:55.319Z,89.20
2022-09-09T04:05:57.637Z,89.05
2022-09-09T04:06:59.281Z,88.98
2022-09-09T04:08:01.012Z,89.08
2022-09-09T04:09:04.282Z,88.99
2022-09-09T04:10:06.394Z,89.02
2022-09-09T04:11:08.649Z,89.14
2022-09-09T04:12:14.562Z,89.17
2022-09-09T04:13:17.288Z,89.13
2022-09-09T04:14:18.926Z,88.74
2022-09-09T04:15:20.533Z,88.81
2022-09-09T04:16:22.191Z,89.08
2022-09-09T04:17:23.785Z,89.03
2022-09-09T04:18:26.164Z,89.07
2022-09-09T04:19:27.777Z,88.98
2022-09-09T04:20:29.361Z,88.91
2022-09-09T04:21:31.684Z,89.22
2022-09-09T04:22:33.276Z,89.21
2022-09-09T04:23:35.355Z,89.06
2022-09-09T04:24:37.016Z,88.90
2022-09-09T04:25:39.023Z,88.74
2022-09-09T04:26:40.622Z,89.05
2022-09-09T04:27:42.460Z,88.97
2022-09-09T04:28:44.193Z,88.94
2022-09-09T04:29:45.826Z,88.88
2022-09-09T04:30:47.447Z,88.71
2022-09-09T04:31:49.069Z,88.91
2022-09-09T04:32:50.676Z,88.78
2022-09-09T04:33:52.368Z,88.62
2022-09-09T04:34:53.998Z,88.37
2022-09-09T04:35:55.804Z,88.33
2022-09-09T04:36:58.013Z,88.88
2022-09-09T04:37:59.723Z,88.65
2022-09-09T04:39:02.032Z,88.71
2022-09-09T04:40:03.911Z,88.83
2022-09-09T04:41:05.645Z,88.58
2022-09-09T04:42:08.180Z,88.77
2022-09-09T04:43:13.833Z,88.79
2022-09-09T04:44:16.794Z,89.25
2022-09-09T04:45:19.505Z,88.89
2022-09-09T04:46:23.763Z,89.34
2022-09-09T04:47:25.401Z,88.95
2022-09-09T04:48:27.012Z,89.11
2022-09-09T04:49:28.587Z,89.02
2022-09-09T04:50:30.170Z,88.97
2022-09-09T04:51:32.328Z,88.96
2022-09-09T04:52:38.489Z,89.13
2022-09-09T04:53:40.082Z,89.50
2022-09-09T04:54:41.686Z,89.75
2022-09-09T04:55:43.263Z,89.71
2022-09-09T04:56:45.417Z,89.76
2022-09-09T04:57:46.998Z,89.71
2022-09-09T04:58:49.069Z,89.57
2022-09-09T04:59:51.094Z,89.81
2022-09-09T05:00:52.878Z,90.10
2022-09-09T05:01:56.313Z,90.00
2022-09-09T05:02:57.957Z,89.91
2022-09-09T05:03:59.517Z,90.07
2022-09-09T05:05:01.726Z,89.83
2022-09-09T05:06:08.123Z,89.06
2022-09-09T05:07:09.906Z,89.37
2022-09-09T05:08:11.530Z,89.25
2022-09-09T05:09:13.098Z,89.01
2022-09-09T05:10:15.840Z,89.14
2022-09-09T05:11:21.284Z,88.76
2022-09-09T05:12:23.506Z,88.25
2022-09-09T05:13:25.301Z,87.68
2022-09-09T05:14:27.657Z,88.02
2022-09-09T05:15:29.718Z,87.84
2022-09-09T05:16:31.599Z,87.59
2022-09-09T05:17:34.906Z,87.39
2022-09-09T05:18:36.613Z,87.77
2022-09-09T05:19:38.212Z,87.43
2022-09-09T05:20:39.834Z,87.28
2022-09-09T05:21:42.632Z,87.22
2022-09-09T05:22:44.182Z,87.27
2022-09-09T05:23:46.373Z,87.44
2022-09-09T05:24:48.286Z,87.03
2022-09-09T05:25:57.762Z,86.40
2022-09-09T05:27:00.935Z,86.63
2022-09-09T05:28:02.822Z,86.73
2022-09-09T05:29:04.743Z,86.94
2022-09-09T05:30:06.816Z,86.78
2022-09-09T05:31:10.300Z,86.59
2022-09-09T05:32:15.397Z,86.42
2022-09-09T05:33:17.211Z,86.74
2022-09-09T05:34:19.994Z,86.15
2022-09-09T05:35:21.864Z,86.37
2022-09-09T05:36:23.631Z,86.16
2022-09-09T05:37:25.178Z,86.29
2022-09-09T05:38:28.787Z,85.91
2022-09-09T05:39:30.690Z,85.97
2022-09-09T05:40:32.333Z,86.05
2022-09-09T05:41:34.031Z,86.25
2022-09-09T05:42:35.793Z,86.15
2022-09-09T05:43:38.519Z,86.00
2022-09-09T05:44:40.261Z,86.19
2022-09-09T05:45:42.166Z,85.59
2022-09-09T05:46:43.948Z,85.75
2022-09-09T05:47:45.605Z,85.41
2022-09-09T05:48:48.351Z,86.29
2022-09-09T05:49:50.419Z,86.28
2022-09-09T05:50:55.454Z,85.41
2022-09-09T05:51:57.050Z,85.30
2022-09-09T05:52:58.865Z,86.07
2022-09-09T05:54:00.561Z,86.24
2022-09-09T05:55:02.171Z,85.98
2022-09-09T05:56:08.463Z,85.54
2022-09-09T05:57:10.049Z,85.42
2022-09-09T05:58:12.126Z,85.36
2022-09-09T05:59:13.794Z,85.64
2022-09-09T06:00:16.529Z,85.51
2022-09-09T06:01:19.691Z,85.00
2022-09-09T06:02:21.377Z,84.87
2022-09-09T06:03:24.678Z,85.05
2022-09-09T06:04:26.381Z,84.42
2022-09-09T06:05:29.300Z,84.13
2022-09-09T06:06:38.139Z,83.09
2022-09-09T06:07:43.054Z,83.44
2022-09-09T06:08:45.335Z,83.34
2022-09-09T06:09:46.918Z,83.87
2022-09-09T06:10:48.541Z,83.54
2022-09-09T06:11:50.347Z,84.31
2022-09-09T06:12:53.695Z,84.28
2022-09-09T06:13:55.648Z,84.17
2022-09-09T06:14:57.675Z,83.82
2022-09-09T06:15:59.525Z,83.59
2022-09-09T06:17:01.283Z,83.96
2022-09-09T06:18:02.862Z,83.42
2022-09-09T06:19:04.842Z,83.88
2022-09-09T06:20:07.003Z,82.91
2022-09-09T06:21:12.615Z,83.04
2022-09-09T06:22:14.306Z,82.44
2022-09-09T06:23:16.040Z,82.06
2022-09-09T06:24:21.085Z,82.07
2022-09-09T06:25:22.943Z,81.95
2022-09-09T06:26:34.696Z,80.88
2022-09-09T06:27:36.320Z,81.29
2022-09-09T06:28:38.152Z,80.65
2022-09-09T06:29:39.990Z,80.35
2022-09-09T06:30:42.321Z,80.53
2022-09-09T06:31:43.998Z,80.60
2022-09-09T06:32:45.748Z,80.28
2022-09-09T06:33:47.333Z,79.82
2022-09-09T06:34:50.356Z,79.68
2022-09-09T06:35:55.242Z,80.09
2022-09-09T06:36:58.851Z,80.93
2022-09-09T06:38:00.549Z,81.42
2022-09-09T06:39:02.296Z,81.25
2022-09-09T06:40:04.126Z,80.78
2022-09-09T06:41:06.770Z,81.41
2022-09-09T06:42:09.987Z,81.41
2022-09-09T06:43:11.651Z,82.09
2022-09-09T06:44:13.259Z,81.64
2022-09-09T06:45:14.901Z,81.87
2022-09-09T06:46:18.479Z,82.39
2022-09-09T06:47:20.179Z,82.30
2022-09-09T06:48:21.958Z,81.78
2022-09-09T06:49:23.513Z,81.34
2022-09-09T06:50:25.134Z,81.22
2022-09-09T06:51:31.314Z,80.77
2022-09-09T06:52:32.923Z,81.52
2022-09-09T06:53:35.254Z,81.75
2022-09-09T06:54:38.574Z,81.61
2022-09-09T06:55:41.375Z,80.63
2022-09-09T06:56:44.110Z,81.10
2022-09-09T06:57:45.935Z,81.69
2022-09-09T06:58:47.593Z,81.76
2022-09-09T06:59:49.395Z,81.23
2022-09-09T07:00:51.112Z,81.39
2022-09-09T07:01:55.997Z,81.23
2022-09-09T07:02:58.057Z,81.64
2022-09-09T07:04:00.124Z,80.71
2022-09-09T07:05:01.884Z,80.49
2022-09-09T07:06:04.845Z,80.18
2022-09-09T07:07:06.458Z,80.26
2022-09-09T07:08:08.037Z,80.01
2022-09-09T07:09:11.022Z,80.60
2022-09-09T07:10:12.731Z,79.37
2022-09-09T07:11:14.542Z,79.65
2022-09-09T07:12:16.162Z,79.40
2022-09-09T07:13:17.726Z,79.48
2022-09-09T07:14:19.505Z,78.88
2022-09-09T07:15:21.213Z,79.02
2022-09-09T07:16:25.607Z,79.33
2022-09-09T07:17:29.316Z,78.72
2022-09-09T07:18:31.550Z,78.63
2022-09-09T07:19:33.123Z,77.62
2022-09-09T07:20:34.767Z,78.21
2022-09-09T07:21:36.450Z,77.04
2022-09-09T07:22:38.014Z,76.98
2022-09-09T07:23:39.993Z,77.98
2022-09-09T07:24:41.570Z,75.78
2022-09-09T07:25:46.662Z,76.72
2022-09-09T07:26:48.216Z,75.46
2022-09-09T07:27:50.330Z,75.38
2022-09-09T07:28:51.961Z,74.77
2022-09-09T07:29:55.258Z,75.47
2022-09-09T07:30:58.022Z,75.76
2022-09-09T07:32:00.001Z,75.87
2022-09-09T07:33:01.584Z,75.04
2022-09-09T07:34:03.789Z,75.81
2022-09-09T07:35:05.792Z,75.84
2022-09-09T07:36:14.073Z,75.29
2022-09-09T07:37:15.839Z,75.64
2022-09-09T07:38:17.495Z,74.36
2022-09-09T07:39:19.123Z,75.60
2022-09-09T07:40:22.812Z,75.35
2022-09-09T07:41:26.619Z,75.84
2022-09-09T07:42:28.719Z,74.73
2022-09-09T07:43:30.323Z,75.83
2022-09-09T07:44:33.371Z,74.76
2022-09-09T07:45:35.012Z,74.56
2022-09-09T07:46:36.691Z,74.91
2022-09-09T07:47:38.402Z,73.69
2022-09-09T07:48:44.322Z,74.77
2022-09-09T07:49:47.381Z,74.58
2022-09-09T07:50:48.956Z,72.99
2022-09-09T07:51:50.612Z,72.30
2022-09-09T07:52:52.907Z,73.01
2022-09-09T07:53:56.452Z,73.73
2022-09-09T07:54:58.190Z,73.18
2022-09-09T07:56:10.356Z,73.44
2022-09-09T07:57:13.337Z,74.09
2022-09-09T07:58:14.892Z,73.31
2022-09-09T07:59:16.572Z,74.48
2022-09-09T08:00:19.885Z,73.87
2022-09-09T08:01:29.349Z,74.09
2022-09-09T08:02:31.076Z,72.87
2022-09-09T08:03:32.709Z,72.88
2022-09-09T08:04:34.283Z,73.04
2022-09-09T08:05:35.872Z,72.82
2022-09-09T08:06:39.276Z,72.84
2022-09-09T08:07:40.936Z,73.98
2022-09-09T08:08:44.268Z,72.48
2022-09-09T08:09:45.831Z,73.30
2022-09-09T08:10:47.425Z,73.74
2022-09-09T08:11:49.231Z,74.00
2022-09-09T08:13:07.842Z,73.70
2022-09-09T08:14:12.775Z,73.11
2022-09-09T08:15:14.391Z,73.47
2022-09-09T08:16:22.747Z,73.99
2022-09-09T08:17:24.458Z,72.93
2022-09-09T08:18:26.031Z,72.94
2022-09-09T08:19:30.319Z,74.06
2022-09-09T08:20:31.932Z,73.44
2022-09-09T08:21:34.205Z,72.32
2022-09-09T08:22:35.849Z,72.12
2022-09-09T08:23:37.499Z,72.83
2022-09-09T08:24:39.168Z,73.10
2022-09-09T08:25:41.185Z,73.15
2022-09-09T08:26:44.650Z,73.46
2022-09-09T08:27:46.519Z,72.57
2022-09-09T08:28:48.153Z,72.78
2022-09-09T08:29:49.725Z,71.31
2022-09-09T08:30:54.383Z,72.69
2022-09-09T08:31:58.283Z,73.19
2022-09-09T08:33:01.173Z,72.78
2022-09-09T08:34:05.611Z,72.08
2022-09-09T08:35:08.075Z,71.78
2022-09-09T08:36:11.338Z,72.59
2022-09-09T08:37:12.979Z,71.21
2022-09-09T08:38:15.406Z,70.26
2022-09-09T08:39:18.628Z,68.57
2022-09-09T08:40:23.997Z,68.47
2022-09-09T08:41:47.060Z,69.67
2022-09-09T08:42:50.747Z,69.68
2022-09-09T08:43:52.555Z,70.01
2022-09-09T08:45:17.147Z,69.40
2022-09-09T08:46:25.146Z,69.85
2022-09-09T08:47:50.390Z,68.95
2022-09-09T08:49:06.830Z,68.12
2022-09-09T08:50:26.922Z,67.98
2022-09-09T08:51:29.459Z,67.10
2022-09-09T08:52:37.294Z,68.66
2022-09-09T08:53:42.997Z,67.30
2022-09-09T08:54:52.073Z,67.92
2022-09-09T08:56:00.444Z,65.43
2022-09-09T08:57:02.074Z,67.03
2022-09-09T08:58:15.295Z,67.03
2022-09-09T08:59:18.276Z,66.88
2022-09-09T09:00:20.149Z,67.69
2022-09-09T09:01:55.747Z,67.04
2022-09-09T09:03:06.807Z,65.12
2022-09-09T09:04:39.513Z,66.43
2022-09-09T09:06:00.172Z,65.82
2022-09-09T09:07:09.801Z,63.41
2022-09-09T09:08:34.627Z,62.07
2022-09-09T09:10:41.141Z,62.21
2022-09-09T09:11:49.717Z,62.22
2022-09-09T09:12:51.438Z,63.39
2022-09-09T09:14:11.103Z,62.63
2022-09-09T09:15:24.107Z,61.48
2022-09-09T09:16:39.635Z,61.05
2022-09-09T09:17:41.431Z,61.35
2022-09-09T09:18:43.377Z,61.03
2022-09-09T09:19:44.976Z,60.44
2022-09-09T09:21:05.018Z,60.74
2022-09-09T09:22:09.606Z,60.40
2022-09-09T09:23:17.248Z,60.35
2022-09-09T09:24:24.838Z,61.45
2022-09-09T09:25:33.252Z,61.58
2022-09-09T09:26:36.250Z,60.51
2022-09-09T09:27:45.455Z,61.26
2022-09-09T09:28:47.040Z,60.39
2022-09-09T09:30:18.201Z,59.19
2022-09-09T09:31:12.377Z,58.27
2022-09-09T09:32:15.598Z,58.21
2022-09-09T09:33:21.657Z,59.35
2022-09-09T09:34:24.377Z,60.93
2022-09-09T09:35:26.175Z,60.18
2022-09-09T09:36:45.744Z,60.86
2022-09-09T09:40:32.347Z,61.94
2022-09-09T09:41:41.558Z,59.87
2022-09-09T09:42:59.552Z,58.40
2022-09-09T09:44:02.422Z,59.41
2022-09-09T09:45:29.696Z,57.66
2022-09-09T09:46:31.324Z,59.21
2022-09-09T09:47:33.567Z,59.89
2022-09-09T09:48:35.716Z,57.73
2022-09-09T09:49:37.876Z,54.63
2022-09-09T09:51:16.677Z,54.60
2022-09-09T09:52:19.227Z,55.43
2022-09-09T09:53:25.550Z,56.39
2022-09-09T09:54:31.450Z,57.17
2022-09-09T09:55:34.601Z,56.39
2022-09-09T09:56:36.337Z,57.17
2022-09-09T09:57:38.099Z,57.77
2022-09-09T09:58:51.779Z,58.71
2022-09-09T10:00:09.302Z,60.47
2022-09-09T10:01:28.297Z,58.26
2022-09-09T10:02:37.804Z,56.26
2022-09-09T10:03:41.469Z,58.04
2022-09-09T10:04:43.175Z,57.05
2022-09-09T10:05:46.744Z,56.44
2022-09-09T10:06:48.423Z,55.84
2022-09-09T10:08:06.669Z,56.09
2022-09-09T10:09:25.758Z,51.03
2022-09-09T10:10:48.339Z,52.02
2022-09-09T10:11:53.496Z,47.64
2022-09-09T10:13:18.755Z,46.80
2022-09-09T10:14:25.985Z,48.34
2022-09-09T10:15:52.384Z,46.10
2022-09-09T10:17:15.810Z,47.68
2022-09-09T10:18:28.340Z,48.72
2022-09-09T10:19:34.739Z,48.54
2022-09-09T10:20:45.704Z,46.81
2022-09-09T10:22:09.638Z,46.17
2022-09-09T10:23:26.334Z,44.99
2022-09-09T10:24:47.398Z,45.08
2022-09-09T10:26:10.068Z,45.64
2022-09-09T10:27:41.812Z,45.53
2022-09-09T10:28:52.744Z,45.80
2022-09-09T10:30:09.976Z,44.55
2022-09-09T10:31:31.785Z,44.80
2022-09-09T10:32:44.434Z,43.92
2022-09-09T10:34:08.027Z,44.38
2022-09-09T10:35:24.613Z,45.60
2022-09-09T10:36:27.242Z,45.49
2022-09-09T10:37:39.320Z,44.53
2022-09-09T10:38:47.556Z,43.38
2022-09-09T10:39:49.204Z,44.91
2022-09-09T10:40:57.651Z,46.05
2022-09-09T10:41:59.468Z,43.76
2022-09-09T10:43:35.537Z,45.61
2022-09-09T10:45:15.076Z,45.31
2022-09-09T10:46:29.419Z,43.82
2022-09-09T10:47:47.511Z,43.36
2022-09-09T10:49:23.184Z,43.78
2022-09-09T10:52:37.844Z,43.33
2022-09-09T10:53:42.072Z,45.01
2022-09-09T10:55:07.994Z,42.19
2022-09-09T10:56:11.810Z,42.03
2022-09-09T10:57:21.779Z,43.38
2022-09-09T10:58:39.574Z,40.32
2022-09-09T10:59:47.354Z,41.05
2022-09-09T11:00:53.758Z,42.57
2022-09-09T11:02:03.513Z,41.58
2022-09-09T11:03:05.267Z,40.93
2022-09-09T11:04:20.414Z,41.72
2022-09-09T11:05:25.232Z,41.70
2022-09-09T11:06:33.866Z,41.81
2022-09-09T11:07:54.352Z,41.53
2022-09-09T11:08:57.117Z,41.38
2022-09-09T11:10:07.580Z,41.34
2022-09-09T11:11:36.414Z,41.70
2022-09-09T11:12:38.126Z,41.25
2022-09-09T11:13:47.432Z,39.35
2022-09-09T11:14:56.145Z,39.37
2022-09-09T11:16:02.478Z,40.50
2022-09-09T11:17:18.304Z,41.33
2022-09-09T11:18:21.246Z,42.41
2022-09-09T11:19:32.947Z,43.22
2022-09-09T11:20:34.514Z,43.53
2022-09-09T11:21:42.520Z,42.30
2022-09-09T11:22:56.494Z,43.11
2022-09-09T11:24:06.142Z,40.13
2022-09-09T11:25:17.468Z,39.65
2022-09-09T11:26:33.110Z,41.02
2022-09-09T11:27:50.638Z,39.49
2022-09-09T11:29:07.418Z,39.18
2022-09-09T11:30:37.760Z,39.05
2022-09-09T11:31:45.994Z,37.63
2022-09-09T11:33:25.695Z,39.17
2022-09-09T11:34:40.744Z,38.85
2022-09-09T11:36:04.470Z,38.36
2022-09-09T11:37:08.880Z,40.69
2022-09-09T11:38:20.523Z,41.81
2022-09-09T11:39:46.156Z,39.35
2022-09-09T11:40:48.572Z,38.71
2022-09-09T11:41:50.548Z,38.90
2022-09-09T11:43:07.029Z,39.31
2022-09-09T11:44:12.726Z,38.32
2022-09-09T11:45:25.165Z,39.61
2022-09-09T11:46:36.413Z,40.16
2022-09-09T11:47:38.060Z,41.59
2022-09-09T11:48:49.453Z,42.47
2022-09-09T11:49:51.111Z,38.89
2022-09-09T11:51:21.574Z,39.60
2022-09-09T11:52:37.090Z,41.35
2022-09-09T11:53:57.056Z,39.90
2022-09-09T11:54:58.835Z,39.57
2022-09-09T11:56:04.884Z,39.99
2022-09-09T11:57:06.465Z,39.70
2022-09-09T11:58:11.990Z,40.14
2022-09-09T11:59:27.582Z,42.27
2022-09-09T12:00:35.769Z,43.58
2022-09-09T12:01:42.629Z,41.87
2022-09-09T12:02:50.677Z,41.22
2022-09-09T12:03:53.906Z,41.54
2022-09-09T12:05:13.402Z,38.18
2022-09-09T12:06:15.187Z,39.08
2022-09-09T12:07:47.304Z,39.00
2022-09-09T12:08:52.362Z,39.97
2022-09-09T12:09:57.644Z,40.44
2022-09-09T12:11:00.655Z,39.46
2022-09-09T12:12:14.776Z,39.83
2022-09-09T12:13:17.450Z,39.83
2022-09-09T12:14:23.856Z,39.37
2022-09-09T12:15:29.801Z,38.66
2022-09-09T12:16:34.351Z,38.46
2022-09-09T12:17:45.331Z,39.19
2022-09-09T12:18:47.653Z,39.10
2022-09-09T12:19:49.593Z,40.23
2022-09-09T12:21:02.861Z,40.77
2022-09-09T12:22:22.373Z,40.98
2022-09-09T12:23:31.669Z,40.39
2022-09-09T12:24:48.802Z,40.06
2022-09-09T12:25:50.321Z,40.40
2022-09-09T12:26:54.814Z,41.18
2022-09-09T12:28:02.766Z,42.38
2022-09-09T12:29:55.900Z,42.52
2022-09-09T12:31:08.866Z,41.81
2022-09-09T12:32:12.611Z,41.85
2022-09-09T12:33:17.165Z,41.76
2022-09-09T12:34:28.896Z,42.09
2022-09-09T12:35:31.642Z,41.76
2022-09-09T12:36:33.269Z,42.02
2022-09-09T12:37:58.070Z,41.67
2022-09-09T12:39:00.991Z,41.12
2022-09-09T12:40:05.053Z,41.38
2022-09-09T12:41:07.053Z,41.86
2022-09-09T12:42:17.790Z,42.22
2022-09-09T12:43:21.167Z,41.28
2022-09-09T12:44:23.775Z,41.51
2022-09-09T12:45:27.228Z,41.19
2022-09-09T12:46:37.677Z,40.59
2022-09-09T12:47:49.877Z,41.71
2022-09-09T12:48:51.449Z,42.62
2022-09-09T12:49:53.147Z,42.89
2022-09-09T12:50:56.871Z,42.47
2022-09-09T12:51:58.482Z,41.80
2022-09-09T12:53:03.006Z,42.22
2022-09-09T12:54:04.642Z,41.86
2022-09-09T12:55:06.485Z,42.34
2022-09-09T12:56:09.584Z,43.31
2022-09-09T12:57:14.124Z,43.31
2022-09-09T12:58:15.703Z,43.33
2022-09-09T12:59:37.454Z,43.65
2022-09-09T13:00:39.012Z,44.08
2022-09-09T13:01:40.843Z,43.83
2022-09-09T13:02:56.520Z,42.19
2022-09-09T13:03:58.194Z,42.11
2022-09-09T13:05:08.154Z,42.52
2022-09-09T13:06:15.373Z,41.89
2022-09-09T13:07:17.725Z,42.17
2022-09-09T13:08:21.995Z,43.11
2022-09-09T13:09:23.703Z,42.91
2022-09-09T13:10:36.638Z,43.10
2022-09-09T13:11:50.462Z,44.24
2022-09-09T13:12:52.217Z,43.72
2022-09-09T13:13:55.334Z,44.26
2022-09-09T13:14:57.429Z,44.00
2022-09-09T13:16:00.142Z,44.10
2022-09-09T13:17:04.358Z,43.52
2022-09-09T13:18:09.298Z,43.10
2022-09-09T13:19:17.224Z,43.19
2022-09-09T13:20:19.240Z,43.56
2022-09-09T13:21:21.011Z,43.94
2022-09-09T13:22:38.872Z,44.92
2022-09-09T13:23:40.509Z,43.18
2022-09-09T13:24:43.622Z,43.69
2022-09-09T13:25:57.767Z,44.12
2022-09-09T13:27:04.278Z,44.48
2022-09-09T13:28:06.404Z,44.14
2022-09-09T13:29:21.305Z,43.88
2022-09-09T13:30:39.153Z,43.94
2022-09-09T13:31:40.792Z,44.31
2022-09-09T13:32:42.399Z,44.76
2022-09-09T13:33:43.958Z,45.35
2022-09-09T13:34:59.315Z,44.01
2022-09-09T13:36:05.689Z,44.40
2022-09-09T13:37:07.990Z,45.48
2022-09-09T13:38:10.651Z,45.47
2022-09-09T13:39:17.197Z,45.79
2022-09-09T13:40:20.330Z,45.39
2022-09-09T13:41:23.266Z,46.01
2022-09-09T13:42:28.784Z,46.51
2022-09-09T13:43:32.201Z,45.97
2022-09-09T13:44:37.861Z,46.60
2022-09-09T13:45:39.471Z,46.96
2022-09-09T13:46:41.681Z,46.04
2022-09-09T13:47:43.312Z,45.78
2022-09-09T13:48:55.325Z,46.67
2022-09-09T13:49:56.932Z,46.79
2022-09-09T13:51:04.270Z,46.28
2022-09-09T13:52:18.040Z,45.53
2022-09-09T13:53:19.670Z,44.13
2022-09-09T13:54:21.722Z,45.70
2022-09-09T13:55:24.126Z,44.26
2022-09-09T13:56:25.795Z,43.11
2022-09-09T13:57:28.139Z,43.97
2022-09-09T13:58:30.169Z,44.12
2022-09-09T13:59:54.283Z,44.91
2022-09-09T14:00:54.484Z,45.27
2022-09-09T14:01:56.275Z,46.48
2022-09-09T14:02:58.014Z,46.20
2022-09-09T14:03:59.966Z,45.47
2022-09-09T14:05:01.625Z,46.45
2022-09-09T14:06:03.269Z,44.89
2022-09-09T14:07:04.895Z,44.93
2022-09-09T14:08:07.356Z,45.55
2022-09-09T14:09:12.057Z,42.17
2022-09-09T14:10:13.710Z,41.67
2022-09-09T14:11:15.405Z,42.82
2022-09-09T14:12:17.502Z,44.32
2022-09-09T14:13:19.197Z,44.32
2022-09-09T14:14:21.277Z,43.55
2022-09-09T14:15:23.107Z,43.73
2022-09-09T14:16:24.727Z,44.24
2022-09-09T14:17:30.438Z,44.49
2022-09-09T14:18:32.011Z,44.35
2022-09-09T14:19:33.575Z,44.73
2022-09-09T14:20:35.164Z,43.51
2022-09-09T14:21:36.893Z,43.11